sensor_id;sensor_type;location;lat;lon;timestamp;temperature;humidity
53286;DHT22;39171;45.550;12.074;2023-03-29T00:06:01;17.20;62.20
53286;DHT22;39171;45.550;12.074;2023-03-29T00:12:05;17.20;62.20
53286;DHT22;39171;45.550;12.074;2023-03-29T00:18:07;17.20;62.30
53286;DHT22;39171;45.550;12.074;2023-03-29T00:24:08;17.10;62.60
53286;DHT22;39171;45.550;12.074;2023-03-29T00:30:09;17.20;62.80
53286;DHT22;39171;45.550;12.074;2023-03-29T00:36:10;17.10;62.70
53286;DHT22;39171;45.550;12.074;2023-03-29T00:42:13;17.10;62.80
53286;DHT22;39171;45.550;12.074;2023-03-29T00:48:19;17.10;62.90
53286;DHT22;39171;45.550;12.074;2023-03-29T00:54:21;17.00;62.90
53286;DHT22;39171;45.550;12.074;2023-03-29T01:00:24;17.00;63.00
53286;DHT22;39171;45.550;12.074;2023-03-29T01:06:26;17.00;63.30
53286;DHT22;39171;45.550;12.074;2023-03-29T01:12:31;17.00;63.50
53286;DHT22;39171;45.550;12.074;2023-03-29T01:18:36;17.00;63.20
53286;DHT22;39171;45.550;12.074;2023-03-29T01:31:07;16.90;63.60
53286;DHT22;39171;45.550;12.074;2023-03-29T01:37:11;16.90;63.40
53286;DHT22;39171;45.550;12.074;2023-03-29T01:43:35;16.90;63.50
53286;DHT22;39171;45.550;12.074;2023-03-29T01:49:44;16.90;63.50
53286;DHT22;39171;45.550;12.074;2023-03-29T01:55:49;16.80;63.50
53286;DHT22;39171;45.550;12.074;2023-03-29T02:01:52;16.80;63.60
53286;DHT22;39171;45.550;12.074;2023-03-29T02:07:54;16.80;63.90
53286;DHT22;39171;45.550;12.074;2023-03-29T02:13:58;16.70;64.00
53286;DHT22;39171;45.550;12.074;2023-03-29T02:20:00;16.70;64.30
53286;DHT22;39171;45.550;12.074;2023-03-29T02:26:09;16.70;64.20
53286;DHT22;39171;45.550;12.074;2023-03-29T02:38:16;16.70;64.30
53286;DHT22;39171;45.550;12.074;2023-03-29T02:44:27;16.60;64.30
53286;DHT22;39171;45.550;12.074;2023-03-29T02:50:32;16.60;64.60
53286;DHT22;39171;45.550;12.074;2023-03-29T02:56:41;16.60;64.50
53286;DHT22;39171;45.550;12.074;2023-03-29T03:02:43;16.60;64.80
53286;DHT22;39171;45.550;12.074;2023-03-29T03:08:46;16.50;64.70
53286;DHT22;39171;45.550;12.074;2023-03-29T03:14:47;16.50;64.50
53286;DHT22;39171;45.550;12.074;2023-03-29T03:20:56;16.50;64.50
53286;DHT22;39171;45.550;12.074;2023-03-29T03:26:57;16.50;64.50
53286;DHT22;39171;45.550;12.074;2023-03-29T03:32:59;16.50;64.50
53286;DHT22;39171;45.550;12.074;2023-03-29T03:39:18;16.50;64.40
53286;DHT22;39171;45.550;12.074;2023-03-29T03:45:20;16.40;64.60
53286;DHT22;39171;45.550;12.074;2023-03-29T03:51:36;16.50;65.10
53286;DHT22;39171;45.550;12.074;2023-03-29T03:57:38;16.40;64.90
53286;DHT22;39171;45.550;12.074;2023-03-29T04:03:45;16.40;64.70
53286;DHT22;39171;45.550;12.074;2023-03-29T04:09:49;16.40;64.70
53286;DHT22;39171;45.550;12.074;2023-03-29T04:16:14;16.40;64.80
53286;DHT22;39171;45.550;12.074;2023-03-29T04:22:15;16.30;64.70
53286;DHT22;39171;45.550;12.074;2023-03-29T04:28:17;16.30;64.90
53286;DHT22;39171;45.550;12.074;2023-03-29T04:34:25;16.30;64.70
53286;DHT22;39171;45.550;12.074;2023-03-29T04:40:29;16.30;64.90
53286;DHT22;39171;45.550;12.074;2023-03-29T04:46:45;16.30;65.00
53286;DHT22;39171;45.550;12.074;2023-03-29T04:53:04;16.20;65.10
53286;DHT22;39171;45.550;12.074;2023-03-29T04:59:07;16.20;64.80
53286;DHT22;39171;45.550;12.074;2023-03-29T05:05:09;16.20;64.70
53286;DHT22;39171;45.550;12.074;2023-03-29T05:11:12;16.20;65.20
53286;DHT22;39171;45.550;12.074;2023-03-29T05:17:14;16.20;65.00
53286;DHT22;39171;45.550;12.074;2023-03-29T05:23:15;16.20;64.90
53286;DHT22;39171;45.550;12.074;2023-03-29T05:29:43;16.20;64.90
53286;DHT22;39171;45.550;12.074;2023-03-29T05:36:17;16.20;65.00
53286;DHT22;39171;45.550;12.074;2023-03-29T05:42:22;16.10;65.20
53286;DHT22;39171;45.550;12.074;2023-03-29T05:48:29;16.10;65.50
53286;DHT22;39171;45.550;12.074;2023-03-29T05:54:31;16.10;65.10
53286;DHT22;39171;45.550;12.074;2023-03-29T06:00:33;16.10;65.80
53286;DHT22;39171;45.550;12.074;2023-03-29T06:06:52;16.10;65.40
53286;DHT22;39171;45.550;12.074;2023-03-29T06:12:55;16.00;65.00
53286;DHT22;39171;45.550;12.074;2023-03-29T06:18:58;16.10;65.90
53286;DHT22;39171;45.550;12.074;2023-03-29T06:25:01;16.00;66.70
53286;DHT22;39171;45.550;12.074;2023-03-29T06:31:06;16.10;66.80
53286;DHT22;39171;45.550;12.074;2023-03-29T06:37:13;16.30;65.90
53286;DHT22;39171;45.550;12.074;2023-03-29T06:43:14;16.60;65.70
53286;DHT22;39171;45.550;12.074;2023-03-29T06:49:32;16.90;64.20
53286;DHT22;39171;45.550;12.074;2023-03-29T06:55:42;17.20;63.60
53286;DHT22;39171;45.550;12.074;2023-03-29T07:02:10;17.40;63.20
53286;DHT22;39171;45.550;12.074;2023-03-29T07:08:27;17.70;62.00
53286;DHT22;39171;45.550;12.074;2023-03-29T07:14:37;17.80;60.90
53286;DHT22;39171;45.550;12.074;2023-03-29T07:20:38;18.00;61.10
53286;DHT22;39171;45.550;12.074;2023-03-29T07:26:41;18.10;60.40
53286;DHT22;39171;45.550;12.074;2023-03-29T07:32:43;18.20;59.70
53286;DHT22;39171;45.550;12.074;2023-03-29T07:39:05;18.30;59.80
53286;DHT22;39171;45.550;12.074;2023-03-29T07:45:11;18.40;59.40
53286;DHT22;39171;45.550;12.074;2023-03-29T07:51:34;18.50;58.50
53286;DHT22;39171;45.550;12.074;2023-03-29T07:57:41;18.70;58.30
53286;DHT22;39171;45.550;12.074;2023-03-29T08:03:45;18.70;58.10
53286;DHT22;39171;45.550;12.074;2023-03-29T08:09:46;18.80;57.70
53286;DHT22;39171;45.550;12.074;2023-03-29T08:15:48;19.00;57.70
53286;DHT22;39171;45.550;12.074;2023-03-29T08:22:03;19.00;57.30
53286;DHT22;39171;45.550;12.074;2023-03-29T08:28:21;19.10;57.10
53286;DHT22;39171;45.550;12.074;2023-03-29T08:34:25;19.20;57.30
53286;DHT22;39171;45.550;12.074;2023-03-29T08:40:41;19.30;56.20
53286;DHT22;39171;45.550;12.074;2023-03-29T08:47:00;19.30;56.10
53286;DHT22;39171;45.550;12.074;2023-03-29T08:53:11;19.40;55.70
53286;DHT22;39171;45.550;12.074;2023-03-29T08:59:33;19.50;54.80
53286;DHT22;39171;45.550;12.074;2023-03-29T09:05:41;19.50;54.70
53286;DHT22;39171;45.550;12.074;2023-03-29T09:18:32;19.50;54.90
53286;DHT22;39171;45.550;12.074;2023-03-29T09:30:50;19.40;54.70
53286;DHT22;39171;45.550;12.074;2023-03-29T09:42:59;19.30;54.80
53286;DHT22;39171;45.550;12.074;2023-03-29T09:49:05;19.30;55.20
53286;DHT22;39171;45.550;12.074;2023-03-29T09:55:11;19.20;55.00
53286;DHT22;39171;45.550;12.074;2023-03-29T10:01:36;19.20;55.00
53286;DHT22;39171;45.550;12.074;2023-03-29T10:07:43;19.20;55.50
53286;DHT22;39171;45.550;12.074;2023-03-29T10:13:49;19.20;55.60
53286;DHT22;39171;45.550;12.074;2023-03-29T10:19:54;19.20;55.00
53286;DHT22;39171;45.550;12.074;2023-03-29T10:25:56;19.20;55.50
53286;DHT22;39171;45.550;12.074;2023-03-29T10:31:58;19.20;54.90
53286;DHT22;39171;45.550;12.074;2023-03-29T10:38:01;19.20;54.90
53286;DHT22;39171;45.550;12.074;2023-03-29T10:44:03;19.20;54.70
53286;DHT22;39171;45.550;12.074;2023-03-29T10:50:05;19.10;54.90
53286;DHT22;39171;45.550;12.074;2023-03-29T10:56:12;19.10;54.60
53286;DHT22;39171;45.550;12.074;2023-03-29T11:02:24;19.10;54.80
53286;DHT22;39171;45.550;12.074;2023-03-29T11:14:32;19.10;54.40
53286;DHT22;39171;45.550;12.074;2023-03-29T11:20:40;19.10;55.00
53286;DHT22;39171;45.550;12.074;2023-03-29T11:45:42;19.10;55.30
53286;DHT22;39171;45.550;12.074;2023-03-29T11:51:45;19.00;55.70
53286;DHT22;39171;45.550;12.074;2023-03-29T11:57:55;19.00;54.40
53286;DHT22;39171;45.550;12.074;2023-03-29T12:03:59;19.00;54.30
53286;DHT22;39171;45.550;12.074;2023-03-29T12:10:07;19.10;55.50
53286;DHT22;39171;45.550;12.074;2023-03-29T12:22:14;19.00;55.30
53286;DHT22;39171;45.550;12.074;2023-03-29T12:34:33;19.10;55.10
53286;DHT22;39171;45.550;12.074;2023-03-29T12:47:36;19.30;53.40
53286;DHT22;39171;45.550;12.074;2023-03-29T12:53:42;19.50;56.30
53286;DHT22;39171;45.550;12.074;2023-03-29T12:59:46;19.70;54.80
53286;DHT22;39171;45.550;12.074;2023-03-29T13:05:57;19.70;53.90
53286;DHT22;39171;45.550;12.074;2023-03-29T13:12:03;19.90;53.50
53286;DHT22;39171;45.550;12.074;2023-03-29T13:24:32;20.30;55.50
53286;DHT22;39171;45.550;12.074;2023-03-29T13:36:41;20.50;54.10
53286;DHT22;39171;45.550;12.074;2023-03-29T13:42:53;20.60;53.20
53286;DHT22;39171;45.550;12.074;2023-03-29T13:48:57;20.60;52.80
53286;DHT22;39171;45.550;12.074;2023-03-29T14:07:25;20.60;49.90
53286;DHT22;39171;45.550;12.074;2023-03-29T14:13:27;20.60;49.80
53286;DHT22;39171;45.550;12.074;2023-03-29T14:25:30;20.70;50.60
53286;DHT22;39171;45.550;12.074;2023-03-29T14:31:32;20.60;50.60
53286;DHT22;39171;45.550;12.074;2023-03-29T14:37:34;20.50;50.70
53286;DHT22;39171;45.550;12.074;2023-03-29T14:43:36;20.50;50.30
53286;DHT22;39171;45.550;12.074;2023-03-29T14:49:38;20.50;50.20
53286;DHT22;39171;45.550;12.074;2023-03-29T14:55:39;20.50;50.40
53286;DHT22;39171;45.550;12.074;2023-03-29T15:01:42;20.60;50.50
53286;DHT22;39171;45.550;12.074;2023-03-29T15:07:43;20.50;50.20
53286;DHT22;39171;45.550;12.074;2023-03-29T15:13:45;20.50;50.90
53286;DHT22;39171;45.550;12.074;2023-03-29T15:19:49;20.50;50.40
53286;DHT22;39171;45.550;12.074;2023-03-29T15:25:55;20.50;49.70
53286;DHT22;39171;45.550;12.074;2023-03-29T15:31:57;20.40;49.40
53286;DHT22;39171;45.550;12.074;2023-03-29T15:37:59;20.40;50.30
53286;DHT22;39171;45.550;12.074;2023-03-29T15:44:00;20.40;50.70
53286;DHT22;39171;45.550;12.074;2023-03-29T15:50:01;20.30;51.40
53286;DHT22;39171;45.550;12.074;2023-03-29T15:56:03;20.30;51.40
53286;DHT22;39171;45.550;12.074;2023-03-29T16:02:10;20.20;50.60
53286;DHT22;39171;45.550;12.074;2023-03-29T16:08:12;20.20;50.70
53286;DHT22;39171;45.550;12.074;2023-03-29T16:14:23;20.20;50.40
53286;DHT22;39171;45.550;12.074;2023-03-29T16:20:25;20.20;50.70
53286;DHT22;39171;45.550;12.074;2023-03-29T16:26:26;20.10;49.90
53286;DHT22;39171;45.550;12.074;2023-03-29T16:32:27;20.10;50.10
53286;DHT22;39171;45.550;12.074;2023-03-29T16:38:28;20.00;50.30
53286;DHT22;39171;45.550;12.074;2023-03-29T16:44:30;20.00;50.70
53286;DHT22;39171;45.550;12.074;2023-03-29T16:50:31;19.90;50.40
53286;DHT22;39171;45.550;12.074;2023-03-29T16:56:32;19.90;50.60
53286;DHT22;39171;45.550;12.074;2023-03-29T17:02:36;19.90;51.40
53286;DHT22;39171;45.550;12.074;2023-03-29T17:08:38;19.80;51.00
53286;DHT22;39171;45.550;12.074;2023-03-29T17:14:39;19.80;51.60
53286;DHT22;39171;45.550;12.074;2023-03-29T17:20:41;19.80;52.00
53286;DHT22;39171;45.550;12.074;2023-03-29T17:26:43;19.70;52.60
53286;DHT22;39171;45.550;12.074;2023-03-29T17:32:44;19.70;52.80
53286;DHT22;39171;45.550;12.074;2023-03-29T17:38:45;19.70;53.30
53286;DHT22;39171;45.550;12.074;2023-03-29T17:44:48;19.70;53.30
53286;DHT22;39171;45.550;12.074;2023-03-29T17:50:50;19.70;53.70
53286;DHT22;39171;45.550;12.074;2023-03-29T17:56:51;19.60;54.40
53286;DHT22;39171;45.550;12.074;2023-03-29T18:02:52;19.60;54.90
53286;DHT22;39171;45.550;12.074;2023-03-29T18:08:59;19.50;54.90
53286;DHT22;39171;45.550;12.074;2023-03-29T18:15:01;19.50;55.00
53286;DHT22;39171;45.550;12.074;2023-03-29T18:21:03;19.50;56.10
53286;DHT22;39171;45.550;12.074;2023-03-29T18:27:06;19.40;56.40
53286;DHT22;39171;45.550;12.074;2023-03-29T18:33:07;19.40;56.50
53286;DHT22;39171;45.550;12.074;2023-03-29T18:39:09;19.40;56.80
53286;DHT22;39171;45.550;12.074;2023-03-29T18:45:11;19.30;57.10
53286;DHT22;39171;45.550;12.074;2023-03-29T18:51:12;19.30;57.20
53286;DHT22;39171;45.550;12.074;2023-03-29T18:57:14;19.30;57.40
53286;DHT22;39171;45.550;12.074;2023-03-29T19:03:16;19.20;57.60
53286;DHT22;39171;45.550;12.074;2023-03-29T19:09:18;19.20;57.90
53286;DHT22;39171;45.550;12.074;2023-03-29T19:15:19;19.20;58.10
53286;DHT22;39171;45.550;12.074;2023-03-29T19:21:20;19.10;58.30
53286;DHT22;39171;45.550;12.074;2023-03-29T19:27:21;19.10;58.50
53286;DHT22;39171;45.550;12.074;2023-03-29T19:33:23;19.10;58.70
53286;DHT22;39171;45.550;12.074;2023-03-29T19:39:24;19.00;58.90
53286;DHT22;39171;45.550;12.074;2023-03-29T19:45:27;19.00;59.00
53286;DHT22;39171;45.550;12.074;2023-03-29T19:51:28;19.00;59.20
53286;DHT22;39171;45.550;12.074;2023-03-29T19:57:30;19.00;59.40
53286;DHT22;39171;45.550;12.074;2023-03-29T20:03:32;18.90;59.40
53286;DHT22;39171;45.550;12.074;2023-03-29T20:09:33;18.90;59.60
53286;DHT22;39171;45.550;12.074;2023-03-29T20:15:35;18.90;59.70
53286;DHT22;39171;45.550;12.074;2023-03-29T20:21:36;18.80;59.80
53286;DHT22;39171;45.550;12.074;2023-03-29T20:27:37;18.80;59.90
53286;DHT22;39171;45.550;12.074;2023-03-29T20:33:40;18.80;60.10
53286;DHT22;39171;45.550;12.074;2023-03-29T20:39:44;18.70;60.20
53286;DHT22;39171;45.550;12.074;2023-03-29T20:45:45;18.70;60.40
53286;DHT22;39171;45.550;12.074;2023-03-29T20:51:50;18.70;60.50
53286;DHT22;39171;45.550;12.074;2023-03-29T20:57:58;18.70;60.60
53286;DHT22;39171;45.550;12.074;2023-03-29T21:03:59;18.70;60.60
53286;DHT22;39171;45.550;12.074;2023-03-29T21:10:00;18.60;60.70
53286;DHT22;39171;45.550;12.074;2023-03-29T21:16:02;18.60;60.90
53286;DHT22;39171;45.550;12.074;2023-03-29T21:22:04;18.50;60.90
53286;DHT22;39171;45.550;12.074;2023-03-29T21:28:05;18.60;61.00
53286;DHT22;39171;45.550;12.074;2023-03-29T21:34:06;18.50;61.20
53286;DHT22;39171;45.550;12.074;2023-03-29T21:40:07;18.50;61.20
53286;DHT22;39171;45.550;12.074;2023-03-29T21:46:10;18.50;61.30
53286;DHT22;39171;45.550;12.074;2023-03-29T21:52:11;18.50;61.40
53286;DHT22;39171;45.550;12.074;2023-03-29T21:58:12;18.40;61.50
53286;DHT22;39171;45.550;12.074;2023-03-29T22:04:14;18.40;61.50
53286;DHT22;39171;45.550;12.074;2023-03-29T22:10:15;18.40;61.60
53286;DHT22;39171;45.550;12.074;2023-03-29T22:16:16;18.40;61.60
53286;DHT22;39171;45.550;12.074;2023-03-29T22:22:18;18.30;61.70
53286;DHT22;39171;45.550;12.074;2023-03-29T22:28:19;18.30;61.80
53286;DHT22;39171;45.550;12.074;2023-03-29T22:34:20;18.30;61.90
53286;DHT22;39171;45.550;12.074;2023-03-29T22:40:23;18.30;61.90
53286;DHT22;39171;45.550;12.074;2023-03-29T22:46:24;18.30;62.00
53286;DHT22;39171;45.550;12.074;2023-03-29T22:52:26;18.30;62.10
53286;DHT22;39171;45.550;12.074;2023-03-29T22:58:27;18.20;62.20
53286;DHT22;39171;45.550;12.074;2023-03-29T23:04:31;18.20;62.20
53286;DHT22;39171;45.550;12.074;2023-03-29T23:10:33;18.20;62.30
53286;DHT22;39171;45.550;12.074;2023-03-29T23:16:34;18.20;62.50
53286;DHT22;39171;45.550;12.074;2023-03-29T23:22:35;18.20;62.60
53286;DHT22;39171;45.550;12.074;2023-03-29T23:28:40;18.20;62.70
53286;DHT22;39171;45.550;12.074;2023-03-29T23:34:42;18.10;62.80
53286;DHT22;39171;45.550;12.074;2023-03-29T23:40:43;18.10;62.80
53286;DHT22;39171;45.550;12.074;2023-03-29T23:46:44;18.10;63.00
53286;DHT22;39171;45.550;12.074;2023-03-29T23:52:45;18.10;63.00
53286;DHT22;39171;45.550;12.074;2023-03-29T23:58:47;18.10;63.00
